createdAt,value
2022-08-17T00:00:04.091Z,96889.56
2022-08-17T00:03:06.373Z,96890.22
2022-08-17T00:05:40.796Z,96889.56
2022-08-17T00:08:08.743Z,96893.31
2022-08-17T00:10:36.648Z,96894.75
2022-08-17T00:13:23.193Z,96896.88
2022-08-17T00:15:51.414Z,96896.41
2022-08-17T00:19:01.315Z,96889.03
2022-08-17T00:21:10.840Z,96891.97
2022-08-17T00:23:47.766Z,96889.63
2022-08-17T00:26:38.782Z,96891.25
2022-08-17T00:29:08.226Z,96892.09
2022-08-17T00:31:36.810Z,96891.66
2022-08-17T00:34:06.320Z,96894.78
2022-08-17T00:36:33.696Z,96895.09
2022-08-17T00:39:01.021Z,96886.19
2022-08-17T00:41:29.497Z,96897.00
2022-08-17T00:44:05.536Z,96898.69
2022-08-17T00:46:41.000Z,96899.91
2022-08-17T00:49:10.896Z,96903.38
2022-08-17T00:51:59.757Z,96901.22
2022-08-17T00:54:42.541Z,96916.66
2022-08-17T00:57:21.614Z,96914.50
2022-08-17T01:00:01.950Z,96909.97
2022-08-17T01:02:42.093Z,96902.59
2022-08-17T01:05:20.628Z,96891.34
2022-08-17T01:07:52.955Z,96901.22
2022-08-17T01:10:59.305Z,96905.97
2022-08-17T01:13:15.953Z,96904.72
2022-08-17T01:15:57.415Z,96904.91
2022-08-17T01:18:26.957Z,96899.41
2022-08-17T01:20:58.933Z,96897.06
2022-08-17T01:23:28.936Z,96896.81
2022-08-17T01:25:59.978Z,96908.44
2022-08-17T01:28:52.785Z,96906.25
2022-08-17T01:31:20.334Z,96904.84
2022-08-17T01:33:47.760Z,96913.19
2022-08-17T01:36:15.267Z,96904.22
2022-08-17T01:38:42.792Z,96914.53
2022-08-17T01:41:15.639Z,96907.75
2022-08-17T01:43:59.138Z,96909.81
2022-08-17T01:46:33.091Z,96912.34
2022-08-17T01:49:05.326Z,96908.91
2022-08-17T01:51:33.719Z,96911.31
2022-08-17T01:54:08.567Z,96911.31
2022-08-17T01:56:43.828Z,96918.38
2022-08-17T01:59:17.034Z,96921.34
2022-08-17T02:01:45.763Z,96917.25
2022-08-17T02:04:13.960Z,96910.06
2022-08-17T02:06:52.632Z,96912.59
2022-08-17T02:09:25.953Z,96911.94
2022-08-17T02:11:59.810Z,96913.22
2022-08-17T02:14:47.269Z,96910.75
2022-08-17T02:17:14.588Z,96910.09
2022-08-17T02:19:41.999Z,96909.13
2022-08-17T02:22:10.251Z,96913.22
2022-08-17T02:25:00.288Z,96902.28
2022-08-17T02:27:26.764Z,96909.38
2022-08-17T02:29:54.219Z,96900.56
2022-08-17T02:32:27.693Z,96913.28
2022-08-17T02:34:58.166Z,96907.28
2022-08-17T02:37:30.456Z,96914.84
2022-08-17T02:39:59.585Z,96905.44
2022-08-17T02:42:40.562Z,96901.94
2022-08-17T02:45:16.615Z,96907.25
2022-08-17T02:47:44.745Z,96916.50
2022-08-17T02:50:16.109Z,96914.59
2022-08-17T02:52:47.492Z,96916.69
2022-08-17T02:55:41.716Z,96909.31
2022-08-17T02:58:10.990Z,96916.22
2022-08-17T03:00:46.355Z,96919.84
2022-08-17T03:03:18.768Z,96919.25
2022-08-17T03:05:53.550Z,96919.56
2022-08-17T03:08:20.964Z,96924.31
2022-08-17T03:10:48.814Z,96912.22
2022-08-17T03:13:16.951Z,96929.34
2022-08-17T03:15:46.207Z,96927.00
2022-08-17T03:18:24.346Z,96934.50
2022-08-17T03:20:56.998Z,96933.41
2022-08-17T03:23:25.744Z,96944.72
2022-08-17T03:25:54.618Z,96939.22
2022-08-17T03:28:22.989Z,96952.88
2022-08-17T03:30:51.429Z,96945.03
2022-08-17T03:33:19.905Z,96946.16
2022-08-17T03:35:47.882Z,96945.34
2022-08-17T03:38:17.411Z,96943.81
2022-08-17T03:40:56.328Z,96942.25
2022-08-17T03:43:32.996Z,96936.78
2022-08-17T03:46:28.233Z,96934.09
2022-08-17T03:49:19.900Z,96933.78
2022-08-17T03:52:06.136Z,96946.63
2022-08-17T03:54:52.096Z,96950.69
2022-08-17T03:57:19.951Z,96950.06
2022-08-17T03:59:47.917Z,96950.53
2022-08-17T04:02:31.206Z,96955.06
2022-08-17T04:04:59.181Z,96955.81
2022-08-17T04:07:30.083Z,96956.44
2022-08-17T04:09:58.330Z,96968.97
2022-08-17T04:12:30.997Z,96968.00
2022-08-17T04:14:59.169Z,96966.56
2022-08-17T04:17:29.284Z,96958.03
2022-08-17T04:19:57.662Z,96966.78
2022-08-17T04:22:31.377Z,96975.94
2022-08-17T04:25:13.852Z,96976.53
2022-08-17T04:27:41.312Z,96970.00
2022-08-17T04:30:09.763Z,96969.47
2022-08-17T04:33:06.482Z,96971.97
2022-08-17T04:35:49.197Z,96973.56
2022-08-17T04:38:24.541Z,96978.38
2022-08-17T04:41:11.392Z,96979.00
2022-08-17T04:43:41.515Z,96984.41
2022-08-17T04:46:17.557Z,96989.50
2022-08-17T04:48:49.407Z,96993.78
2022-08-17T04:51:23.339Z,96997.44
2022-08-17T04:53:55.433Z,97003.38
2022-08-17T04:56:25.942Z,96993.66
2022-08-17T04:58:58.583Z,97005.28
2022-08-17T05:01:28.952Z,96998.97
2022-08-17T05:04:21.078Z,96996.69
2022-08-17T05:06:49.755Z,97002.88
2022-08-17T05:09:18.347Z,97009.66
2022-08-17T05:11:46.722Z,97012.34
2022-08-17T05:14:14.857Z,97004.28
2022-08-17T05:16:42.221Z,97006.72
2022-08-17T05:19:09.616Z,97007.09
2022-08-17T05:21:36.980Z,97006.75
2022-08-17T05:24:06.044Z,97010.28
2022-08-17T05:26:52.009Z,97010.00
2022-08-17T05:29:19.693Z,97016.56
2022-08-17T05:31:47.023Z,97020.75
2022-08-17T05:34:14.723Z,97021.25
2022-08-17T05:36:44.508Z,97020.94
2022-08-17T05:39:16.792Z,97025.88
2022-08-17T05:41:48.145Z,97025.63
2022-08-17T05:44:17.185Z,97021.66
2022-08-17T05:46:51.778Z,97021.97
2022-08-17T05:49:27.372Z,97032.22
2022-08-17T05:52:09.449Z,97029.94
2022-08-17T05:55:22.360Z,97030.53
2022-08-17T05:58:00.197Z,97027.06
2022-08-17T06:00:42.135Z,97023.84
2022-08-17T06:03:35.093Z,97032.91
2022-08-17T06:06:44.854Z,97033.53
2022-08-17T06:10:00.384Z,97030.22
2022-08-17T06:12:43.982Z,97033.72
2022-08-17T06:15:39.020Z,97026.59
2022-08-17T06:18:13.717Z,97030.03
2022-08-17T06:20:57.595Z,97030.34
2022-08-17T06:23:37.646Z,97029.56
2022-08-17T06:26:17.561Z,97025.22
2022-08-17T06:28:53.440Z,97021.13
2022-08-17T06:31:31.922Z,97020.38
2022-08-17T06:34:04.235Z,97025.31
2022-08-17T06:37:05.684Z,97025.19
2022-08-17T06:39:43.793Z,97029.16
2022-08-17T06:43:02.648Z,97027.75
2022-08-17T06:45:13.737Z,97027.00
2022-08-17T06:48:09.973Z,97025.06
2022-08-17T06:50:47.820Z,97026.06
2022-08-17T06:53:36.869Z,97038.69
2022-08-17T06:56:57.460Z,97026.19
2022-08-17T06:59:55.477Z,97030.19
2022-08-17T07:02:52.015Z,97036.16
2022-08-17T07:05:44.342Z,97034.28
2022-08-17T07:08:43.373Z,97032.88
2022-08-17T07:11:17.231Z,97034.28
2022-08-17T07:14:41.451Z,97023.75
2022-08-17T07:17:16.014Z,97023.00
2022-08-17T07:19:47.576Z,97025.72
2022-08-17T07:22:57.742Z,97029.53
2022-08-17T07:25:21.923Z,97021.50
2022-08-17T07:27:56.015Z,97022.81
2022-08-17T07:30:49.002Z,97027.66
2022-08-17T07:33:30.321Z,97029.59
2022-08-17T07:35:58.457Z,97031.47
2022-08-17T07:38:29.764Z,97029.84
2022-08-17T07:41:02.203Z,97033.88
2022-08-17T07:43:39.586Z,97041.53
2022-08-17T07:46:53.772Z,97038.13
2022-08-17T07:49:40.744Z,97044.75
2022-08-17T07:52:51.998Z,97036.91
2022-08-17T07:55:35.045Z,97039.34
2022-08-17T07:58:03.585Z,97046.53
2022-08-17T08:00:33.053Z,97048.81
2022-08-17T08:03:14.872Z,97041.13
2022-08-17T08:05:56.855Z,97041.78
2022-08-17T08:08:50.539Z,97049.94
2022-08-17T08:11:35.841Z,97042.50
2022-08-17T08:14:33.703Z,97053.63
2022-08-17T08:17:06.702Z,97045.19
2022-08-17T08:19:36.768Z,97043.66
2022-08-17T08:22:18.639Z,97049.75
2022-08-17T08:24:56.338Z,97047.91
2022-08-17T08:27:53.413Z,97050.75
2022-08-17T08:30:22.130Z,97047.91
2022-08-17T08:33:22.732Z,97048.56
2022-08-17T08:36:07.778Z,97047.94
2022-08-17T08:38:50.156Z,97049.06
2022-08-17T08:41:44.919Z,97061.56
2022-08-17T08:45:01.340Z,97052.94
2022-08-17T08:47:51.921Z,97052.97
2022-08-17T08:50:49.538Z,97061.97
2022-08-17T08:53:44.370Z,97061.00
2022-08-17T08:57:19.783Z,97041.25
2022-08-17T09:00:13.390Z,97041.78
2022-08-17T09:03:20.215Z,97057.28
2022-08-17T09:06:32.488Z,97056.56
2022-08-17T09:09:22.671Z,97054.53
2022-08-17T09:12:17.035Z,97054.78
2022-08-17T09:15:13.757Z,97057.81
2022-08-17T09:19:00.309Z,97053.75
2022-08-17T09:21:54.586Z,97049.69
2022-08-17T09:25:23.472Z,97054.22
2022-08-17T09:28:06.385Z,97053.50
2022-08-17T09:30:55.358Z,97059.34
2022-08-17T09:33:27.805Z,97061.38
2022-08-17T09:36:05.587Z,97049.66
2022-08-17T09:39:01.928Z,97049.16
2022-08-17T09:42:07.011Z,97057.19
2022-08-17T09:44:36.844Z,97056.66
2022-08-17T09:47:26.565Z,97048.53
2022-08-17T09:50:06.120Z,97043.16
2022-08-17T09:52:33.563Z,97034.53
2022-08-17T09:55:01.876Z,97035.31
2022-08-17T09:57:53.497Z,97037.06
2022-08-17T10:00:29.443Z,97036.81
2022-08-17T10:03:51.039Z,97032.63
2022-08-17T10:06:37.980Z,97026.66
2022-08-17T10:09:22.163Z,97035.31
2022-08-17T10:12:20.427Z,97029.59
2022-08-17T10:15:07.670Z,97031.00
2022-08-17T10:18:07.479Z,97035.97
2022-08-17T10:21:14.507Z,97049.53
2022-08-17T10:24:02.789Z,97041.22
2022-08-17T10:26:50.235Z,97039.00
2022-08-17T10:29:49.083Z,97037.81
2022-08-17T10:32:37.965Z,97038.50
2022-08-17T10:35:17.205Z,97030.44
2022-08-17T10:38:24.568Z,97037.97
2022-08-17T10:41:29.806Z,97027.44
2022-08-17T10:44:38.017Z,97030.47
2022-08-17T10:47:14.531Z,97029.25
2022-08-17T10:49:54.060Z,97024.28
2022-08-17T10:52:26.182Z,97029.09
2022-08-17T10:54:58.336Z,97024.81
2022-08-17T10:57:40.862Z,97028.97
2022-08-17T11:00:37.920Z,97032.63
2022-08-17T11:03:23.840Z,97031.38
2022-08-17T11:06:22.587Z,97038.03
2022-08-17T11:09:29.566Z,97036.63
2022-08-17T11:12:54.638Z,97038.63
2022-08-17T11:15:28.770Z,97042.19
2022-08-17T11:18:26.654Z,97037.84
2022-08-17T11:21:32.246Z,97030.84
2022-08-17T11:24:17.712Z,97034.38
2022-08-17T11:27:04.158Z,97021.72
2022-08-17T11:29:52.978Z,97017.53
2022-08-17T11:32:54.554Z,97008.06
2022-08-17T11:35:22.277Z,97006.44
2022-08-17T11:38:17.086Z,97010.84
2022-08-17T11:40:53.373Z,97004.19
2022-08-17T11:43:43.512Z,97008.81
2022-08-17T11:46:51.726Z,97002.22
2022-08-17T11:49:57.767Z,96998.69
2022-08-17T11:52:45.948Z,97001.09
2022-08-17T11:55:39.377Z,97002.47
2022-08-17T11:58:29.642Z,96996.63
2022-08-17T12:01:07.485Z,96991.28
2022-08-17T12:03:34.636Z,96985.22
2022-08-17T12:06:23.063Z,96995.31
2022-08-17T12:09:25.172Z,96982.47
2022-08-17T12:12:14.289Z,96988.69
2022-08-17T12:15:12.929Z,96988.09
2022-08-17T12:17:43.021Z,96982.06
2022-08-17T12:20:30.836Z,96983.75
2022-08-17T12:23:15.160Z,96978.59
2022-08-17T12:26:10.112Z,96981.66
2022-08-17T12:28:44.353Z,96979.09
2022-08-17T12:31:27.600Z,96983.81
2022-08-17T12:33:56.227Z,96981.72
2022-08-17T12:36:26.546Z,96974.09
2022-08-17T12:39:13.018Z,96979.81
2022-08-17T12:41:50.740Z,96978.19
2022-08-17T12:44:25.676Z,96978.00
2022-08-17T12:47:22.613Z,96983.88
2022-08-17T12:50:03.878Z,96975.53
2022-08-17T12:52:33.223Z,96976.38
2022-08-17T12:55:21.291Z,96980.38
2022-08-17T12:57:59.622Z,96976.47
2022-08-17T13:00:47.536Z,96980.78
2022-08-17T13:03:23.182Z,96962.81
2022-08-17T13:06:00.849Z,96959.84
2022-08-17T13:08:38.001Z,96958.53
2022-08-17T13:11:14.667Z,96957.13
2022-08-17T13:13:47.210Z,96963.63
2022-08-17T13:16:17.012Z,96955.88
2022-08-17T13:19:39.850Z,96964.47
2022-08-17T13:22:12.926Z,96962.59
2022-08-17T13:24:56.477Z,96954.25
2022-08-17T13:27:27.552Z,96952.22
2022-08-17T13:30:07.395Z,96953.47
2022-08-17T13:32:43.721Z,96953.91
2022-08-17T13:35:47.672Z,96961.50
2022-08-17T13:38:45.671Z,96970.38
2022-08-17T13:41:35.500Z,96957.47
2022-08-17T13:44:23.068Z,96956.44
2022-08-17T13:46:56.946Z,96955.56
2022-08-17T13:49:24.938Z,96957.88
2022-08-17T13:52:32.146Z,96963.91
2022-08-17T13:55:15.810Z,96961.78
2022-08-17T13:58:06.529Z,96961.25
2022-08-17T14:00:36.919Z,96968.88
2022-08-17T14:03:05.444Z,96963.28
2022-08-17T14:05:33.891Z,96971.69
2022-08-17T14:08:06.852Z,96963.00
2022-08-17T14:10:36.614Z,96970.50
2022-08-17T14:13:05.902Z,96971.59
2022-08-17T14:15:55.580Z,96969.88
2022-08-17T14:18:34.299Z,96968.38
2022-08-17T14:21:10.345Z,96966.06
2022-08-17T14:23:38.115Z,96973.72
2022-08-17T14:26:06.020Z,96960.84
2022-08-17T14:28:33.494Z,96964.13
2022-08-17T14:31:03.843Z,96964.19
2022-08-17T14:33:31.281Z,96963.16
2022-08-17T14:35:58.816Z,96959.91
2022-08-17T14:38:26.310Z,96957.91
2022-08-17T14:40:54.302Z,96956.91
2022-08-17T14:43:21.801Z,96958.75
2022-08-17T14:45:49.299Z,96962.69
2022-08-17T14:48:16.728Z,96963.91
2022-08-17T14:50:44.481Z,96966.03
2022-08-17T14:53:15.430Z,96961.56
2022-08-17T14:55:45.797Z,96958.75
2022-08-17T14:58:15.066Z,96958.66
2022-08-17T15:00:43.762Z,96954.09
2022-08-17T15:03:11.842Z,96966.69
2022-08-17T15:05:40.465Z,96958.84
2022-08-17T15:08:08.017Z,96955.41
2022-08-17T15:10:36.421Z,96962.78
2022-08-17T15:13:04.957Z,96961.84
2022-08-17T15:15:32.433Z,96962.31
2022-08-17T15:18:00.150Z,96960.63
2022-08-17T15:20:30.021Z,96956.03
2022-08-17T15:22:59.437Z,96958.25
2022-08-17T15:25:31.902Z,96956.84
2022-08-17T15:28:00.663Z,96958.63
2022-08-17T15:30:29.181Z,96962.97
2022-08-17T15:32:59.098Z,96962.97
2022-08-17T15:35:33.831Z,96962.16
2022-08-17T15:38:11.273Z,96958.25
2022-08-17T15:40:46.910Z,96954.34
2022-08-17T15:43:24.773Z,96953.28
2022-08-17T15:46:17.698Z,96947.69
2022-08-17T15:48:49.755Z,96940.00
2022-08-17T15:51:31.063Z,96952.06
2022-08-17T15:54:18.846Z,96955.66
2022-08-17T15:56:50.770Z,96943.75
2022-08-17T15:59:18.454Z,96939.16
2022-08-17T16:03:13.615Z,96944.66
2022-08-17T16:04:33.379Z,96950.59
2022-08-17T16:07:00.848Z,96944.84
2022-08-17T16:09:28.793Z,96941.09
2022-08-17T16:11:56.544Z,96950.13
2022-08-17T16:14:30.338Z,96942.81
2022-08-17T16:17:04.289Z,96945.16
2022-08-17T16:19:33.189Z,96945.59
2022-08-17T16:22:00.927Z,96943.72
2022-08-17T16:24:28.585Z,96945.28
2022-08-17T16:26:56.162Z,96951.22
2022-08-17T16:29:23.624Z,96943.13
2022-08-17T16:31:51.445Z,96947.88
2022-08-17T16:34:19.570Z,96955.66
2022-08-17T16:36:54.762Z,96954.16
2022-08-17T16:39:29.290Z,96955.44
2022-08-17T16:41:57.900Z,96951.22
2022-08-17T16:44:27.551Z,96948.13
2022-08-17T16:46:54.856Z,96948.19
2022-08-17T16:49:35.509Z,96951.31
2022-08-17T16:52:10.445Z,96950.91
2022-08-17T16:54:43.602Z,96960.22
2022-08-17T16:57:13.603Z,96962.56
2022-08-17T16:59:44.967Z,96959.03
2022-08-17T17:02:29.627Z,96961.75
2022-08-17T17:05:06.504Z,96957.84
2022-08-17T17:07:51.140Z,96966.34
2022-08-17T17:10:24.831Z,96962.03
2022-08-17T17:13:01.858Z,96965.06
2022-08-17T17:15:53.590Z,96961.13
2022-08-17T17:18:37.915Z,96957.16
2022-08-17T17:21:10.016Z,96966.38
2022-08-17T17:23:57.748Z,96977.09
2022-08-17T17:26:48.397Z,96973.13
2022-08-17T17:29:51.362Z,96971.00
2022-08-17T17:33:19.250Z,96968.13
2022-08-17T17:36:39.946Z,96979.97
2022-08-17T17:39:18.956Z,96973.25
2022-08-17T17:41:51.824Z,96968.13
2022-08-17T17:44:30.281Z,96965.19
2022-08-17T17:47:00.570Z,96974.31
2022-08-17T17:49:38.262Z,96967.19
2022-08-17T17:52:32.884Z,96972.78
2022-08-17T17:55:54.979Z,96981.41
2022-08-17T17:59:43.330Z,96988.44
2022-08-17T18:02:51.503Z,96981.50
2022-08-17T18:05:37.452Z,96980.72
2022-08-17T18:08:34.307Z,96988.78
2022-08-17T18:11:08.001Z,96987.59
2022-08-17T18:14:18.597Z,96985.97
2022-08-17T18:16:51.171Z,96990.25
2022-08-17T18:19:20.794Z,96992.59
2022-08-17T18:22:07.216Z,96990.53
2022-08-17T18:24:43.254Z,96989.50
2022-08-17T18:27:23.397Z,96998.19
2022-08-17T18:29:54.249Z,96999.16
2022-08-17T18:32:43.083Z,97002.91
2022-08-17T18:35:10.401Z,97005.81
2022-08-17T18:37:52.778Z,97000.44
2022-08-17T18:40:20.236Z,96997.91
2022-08-17T18:42:50.490Z,96996.16
2022-08-17T18:45:40.867Z,96999.78
2022-08-17T18:48:48.810Z,97001.78
2022-08-17T18:51:41.656Z,96996.34
2022-08-17T18:54:21.997Z,97001.56
2022-08-17T18:56:56.558Z,97013.47
2022-08-17T18:59:32.141Z,97016.00
2022-08-17T19:02:24.219Z,97026.00
2022-08-17T19:05:08.028Z,97028.97
2022-08-17T19:07:46.670Z,97031.72
2022-08-17T19:10:21.963Z,97034.00
2022-08-17T19:13:23.994Z,97023.25
2022-08-17T19:16:18.091Z,97019.19
2022-08-17T19:19:19.666Z,97015.56
2022-08-17T19:22:02.387Z,97028.94
2022-08-17T19:24:33.664Z,97029.34
2022-08-17T19:27:18.239Z,97038.63
2022-08-17T19:30:07.155Z,97031.25
2022-08-17T19:32:36.148Z,97029.09
2022-08-17T19:35:07.269Z,97034.66
2022-08-17T19:37:51.600Z,97035.47
2022-08-17T19:41:01.851Z,97033.72
2022-08-17T19:43:44.151Z,97033.19
2022-08-17T19:46:19.307Z,97039.69
2022-08-17T19:48:59.032Z,97039.13
2022-08-17T19:51:50.772Z,97037.41
2022-08-17T19:54:55.499Z,97032.72
2022-08-17T19:58:03.143Z,97024.94
2022-08-17T20:00:34.339Z,97029.09
2022-08-17T20:03:16.628Z,97032.38
2022-08-17T20:06:12.658Z,97028.88
2022-08-17T20:08:48.017Z,97024.56
2022-08-17T20:11:41.320Z,97033.97
2022-08-17T20:14:18.882Z,97028.13
2022-08-17T20:16:46.534Z,97025.78
2022-08-17T20:19:23.096Z,97022.13
2022-08-17T20:22:05.028Z,97022.25
2022-08-17T20:24:44.598Z,97017.47
2022-08-17T20:27:34.548Z,97027.22
2022-08-17T20:30:10.556Z,97028.03
2022-08-17T20:32:53.051Z,97028.47
2022-08-17T20:35:31.974Z,97028.38
2022-08-17T20:38:13.622Z,97033.44
2022-08-17T20:40:57.578Z,97031.00
2022-08-17T20:43:33.866Z,97026.69
2022-08-17T20:46:19.146Z,97020.53
2022-08-17T20:48:52.358Z,97011.56
2022-08-17T20:51:39.576Z,97016.84
2022-08-17T20:54:26.925Z,97012.72
2022-08-17T20:56:58.062Z,97021.09
2022-08-17T20:59:25.983Z,97019.44
2022-08-17T21:02:18.829Z,97016.31
2022-08-17T21:04:54.617Z,97017.09
2022-08-17T21:07:54.066Z,97015.88
2022-08-17T21:10:24.407Z,97022.25
2022-08-17T21:13:15.520Z,97018.94
2022-08-17T21:15:52.458Z,97002.38
2022-08-17T21:19:30.966Z,97003.94
2022-08-17T21:22:45.531Z,96989.22
2022-08-17T21:25:32.691Z,96984.88
2022-08-17T21:28:23.213Z,96994.56
2022-08-17T21:31:09.033Z,96992.91
2022-08-17T21:33:40.471Z,96991.38
2022-08-17T21:36:13.632Z,96993.25
2022-08-17T21:39:02.727Z,96995.03
2022-08-17T21:41:55.420Z,96999.50
2022-08-17T21:44:36.957Z,96993.72
2022-08-17T21:47:30.172Z,96998.50
2022-08-17T21:50:22.827Z,97002.16
2022-08-17T21:52:54.741Z,96998.03
2022-08-17T21:55:30.709Z,96995.56
2022-08-17T21:58:13.973Z,96991.56
2022-08-17T22:00:45.935Z,96995.25
2022-08-17T22:03:26.253Z,96987.22
2022-08-17T22:05:53.659Z,96984.88
2022-08-17T22:08:26.785Z,96979.41
2022-08-17T22:11:02.614Z,96978.94
2022-08-17T22:13:30.322Z,96980.84
2022-08-17T22:16:28.629Z,96979.94
2022-08-17T22:18:58.975Z,96979.06
2022-08-17T22:21:26.872Z,96978.72
2022-08-17T22:24:16.070Z,96973.69
2022-08-17T22:27:11.844Z,96982.06
2022-08-17T22:29:59.294Z,96993.78
2022-08-17T22:32:38.587Z,96991.75
2022-08-17T22:35:33.522Z,96989.41
2022-08-17T22:38:18.901Z,97003.13
2022-08-17T22:40:49.977Z,97012.28
2022-08-17T22:43:26.065Z,97014.63
2022-08-17T22:46:00.134Z,97006.94
2022-08-17T22:48:30.458Z,97010.50
2022-08-17T22:51:14.711Z,97014.19
2022-08-17T22:54:14.591Z,97022.09
2022-08-17T22:57:19.658Z,97024.00
2022-08-17T22:59:55.807Z,97016.63
2022-08-17T23:02:35.048Z,97022.63
2022-08-17T23:05:13.062Z,97023.09
2022-08-17T23:07:42.491Z,97021.66
2022-08-17T23:10:12.266Z,97018.97
2022-08-17T23:12:40.080Z,97025.13
2022-08-17T23:15:19.082Z,97032.38
2022-08-17T23:17:46.818Z,97035.69
2022-08-17T23:20:16.515Z,97029.91
2022-08-17T23:22:52.287Z,97028.19
2022-08-17T23:25:28.921Z,97027.44
2022-08-17T23:27:58.450Z,97025.09
2022-08-17T23:30:31.262Z,97019.94
2022-08-17T23:33:02.498Z,97027.72
2022-08-17T23:35:40.444Z,97024.59
2022-08-17T23:38:13.411Z,97025.81
2022-08-17T23:40:41.474Z,97029.16
2022-08-17T23:43:23.521Z,97024.00
2022-08-17T23:45:54.727Z,97024.66
2022-08-17T23:48:27.791Z,97026.69
2022-08-17T23:51:08.792Z,97034.06
2022-08-17T23:53:40.318Z,97028.25
2022-08-17T23:56:11.132Z,97016.84
2022-08-17T23:58:44.868Z,97015.59
